Time;durP1;ratioP1;P1;durP2;ratioP2;P2;SDS_P1;SDS_P2;PMS_P1;PMS_P2;Temp;Humidity;BMP_temperature;BMP_pressure;BME280_temperature;BME280_humidity;BME280_pressure;Samples;Min_cycle;Max_cycle;Signal;HPM_P1;HPM_P2
2022/06/15 00:02:59;;;;;;;2.30;1.00;;;;;;;15.05;60.15;100814.91;5529347;32;34044;-65
2022/06/15 00:06:14;;;;;;;2.30;1.20;;;;;;;15.20;60.78;100818.38;5530364;32;34058;-65
2022/06/15 00:09:20;;;;;;;2.15;1.00;;;;;;;14.98;60.01;100818.50;5530212;32;33406;-66
2022/06/15 00:12:23;;;;;;;3.53;1.12;;;;;;;14.81;60.41;100817.88;5529422;32;34710;-65
2022/06/15 00:15:25;;;;;;;2.42;1.15;;;;;;;14.67;61.53;100816.84;5530100;32;33915;-65
2022/06/15 00:18:28;;;;;;;1.83;0.80;;;;;;;14.60;62.06;100823.09;5529948;32;34469;-65
2022/06/15 00:21:32;;;;;;;2.20;0.93;;;;;;;14.53;61.87;100824.84;5529721;32;34905;-65
2022/06/15 00:24:35;;;;;;;2.62;1.35;;;;;;;14.79;61.95;100831.41;5530081;32;34505;-64
2022/06/15 00:27:39;;;;;;;4.32;1.40;;;;;;;14.96;63.72;100840.03;5516519;32;33891;-65
2022/06/15 00:30:42;;;;;;;3.50;1.62;;;;;;;14.93;65.37;100842.28;5529613;32;34011;-65
2022/06/15 00:33:44;;;;;;;3.12;1.50;;;;;;;14.71;65.87;100836.03;5529970;32;34020;-65
2022/06/15 00:36:47;;;;;;;3.33;1.35;;;;;;;14.57;66.53;100834.16;5529608;32;34651;-65
2022/06/15 00:39:51;;;;;;;3.20;1.23;;;;;;;14.56;66.08;100835.16;5529403;32;33975;-65
2022/06/15 00:42:54;;;;;;;2.60;1.42;;;;;;;14.50;66.53;100839.41;5528828;32;34178;-65
2022/06/15 00:45:57;;;;;;;4.80;1.50;;;;;;;14.43;66.46;100841.13;5529427;32;34011;-65
2022/06/15 00:49:06;;;;;;;2.50;1.15;;;;;;;14.35;67.27;100835.84;5529318;32;35211;-65
2022/06/15 00:52:28;;;;;;;3.25;1.33;;;;;;;14.23;68.26;100837.28;5529354;32;34800;-65
2022/06/15 00:55:32;;;;;;;3.45;1.52;;;;;;;14.05;68.75;100842.94;5529112;32;34660;-65
2022/06/15 00:58:38;;;;;;;5.32;1.30;;;;;;;13.89;69.62;100829.72;5529150;32;34741;-65
2022/06/15 01:01:41;;;;;;;2.80;1.35;;;;;;;13.83;69.68;100825.94;5531007;32;34054;-65
2022/06/15 01:04:50;;;;;;;3.65;1.17;;;;;;;13.79;70.10;100824.63;5532436;32;34631;-65
2022/06/15 01:08:50;;;;;;;2.33;1.12;;;;;;;13.75;69.64;100817.97;5532026;32;34668;-65
2022/06/15 01:12:25;;;;;;;1.50;1.10;;;;;;;13.76;68.27;100824.97;5465349;32;34015;-64
2022/06/15 01:15:40;;;;;;;2.97;1.35;;;;;;;13.98;67.62;100823.31;5531307;32;33885;-65
2022/06/15 01:18:52;;;;;;;2.33;1.10;;;;;;;13.92;67.62;100824.03;5531218;32;33877;-65
2022/06/15 01:22:24;;;;;;;3.53;1.30;;;;;;;14.03;67.62;100831.62;5531841;32;34035;-65
2022/06/15 01:25:45;;;;;;;2.72;1.30;;;;;;;14.08;67.88;100839.91;5531644;32;34571;-64
2022/06/15 01:28:55;;;;;;;2.17;1.10;;;;;;;14.05;69.14;100837.59;5531811;32;34632;-64
2022/06/15 01:32:06;;;;;;;2.08;1.30;;;;;;;14.24;68.83;100834.41;5531870;32;34687;-64
2022/06/15 01:35:20;;;;;;;2.20;0.98;;;;;;;14.22;67.44;100836.47;5531810;32;33860;-64
2022/06/15 01:39:00;;;;;;;3.40;1.12;;;;;;;14.25;67.17;100832.59;5531236;32;34264;-65
2022/06/15 01:42:11;;;;;;;4.72;1.17;;;;;;;14.39;66.82;100828.31;5505896;32;34637;-65
2022/06/15 01:45:20;;;;;;;2.42;1.45;;;;;;;14.43;65.90;100833.09;5531730;32;33978;-67
2022/06/15 01:48:26;;;;;;;2.08;1.05;;;;;;;14.51;66.79;100834.88;5531792;32;34261;-64
2022/06/15 01:51:42;;;;;;;2.12;1.00;;;;;;;14.27;67.02;100830.59;5531642;32;33965;-65
2022/06/15 01:54:52;;;;;;;1.55;1.10;;;;;;;14.03;67.59;100834.28;5531666;32;34704;-65
2022/06/15 01:58:00;;;;;;;3.12;1.30;;;;;;;13.92;68.48;100840.03;5531495;32;34514;-65
2022/06/15 02:01:15;;;;;;;2.85;1.27;;;;;;;13.79;69.45;100840.63;5531493;32;33972;-65
2022/06/15 02:04:44;;;;;;;2.33;1.20;;;;;;;13.75;69.72;100843.81;5531546;32;33932;-65
2022/06/15 02:07:54;;;;;;;2.05;1.17;;;;;;;14.05;68.14;100842.09;5531934;32;34123;-65
2022/06/15 02:11:21;;;;;;;1.87;1.00;;;;;;;14.04;70.24;100837.78;5531595;32;34637;-65
2022/06/15 02:14:31;;;;;;;1.50;1.15;;;;;;;13.94;69.18;100846.03;5531572;32;34671;-65
2022/06/15 02:17:39;;;;;;;8.32;1.50;;;;;;;13.82;69.30;100844.78;5531587;32;35123;-65
2022/06/15 02:20:47;;;;;;;9.02;1.50;;;;;;;13.77;69.81;100842.62;5531686;32;34575;-65
2022/06/15 02:23:55;;;;;;;4.72;1.50;;;;;;;13.78;69.99;100846.13;5531386;32;34690;-65
2022/06/15 02:26:59;;;;;;;2.62;1.12;;;;;;;13.85;69.96;100849.75;5531708;32;33943;-65
2022/06/15 02:30:11;;;;;;;3.85;1.37;;;;;;;13.92;69.32;100854.22;5531194;32;34158;-65
2022/06/15 02:33:25;;;;;;;2.10;1.33;;;;;;;13.82;69.65;100861.59;5531348;32;33880;-65
2022/06/15 02:36:31;;;;;;;2.92;1.27;;;;;;;13.89;69.31;100861.75;5531373;32;34127;-65
2022/06/15 02:39:35;;;;;;;2.25;1.12;;;;;;;13.92;69.30;100862.22;5531356;32;34037;-65
2022/06/15 02:42:40;;;;;;;1.98;1.10;;;;;;;13.80;69.43;100858.28;5530812;32;33943;-65
2022/06/15 02:45:47;;;;;;;1.67;1.10;;;;;;;13.85;68.75;100860.41;5531305;32;35210;-65
2022/06/15 02:48:52;;;;;;;2.40;1.25;;;;;;;13.90;68.63;100853.53;5531108;32;34794;-65
2022/06/15 02:52:01;;;;;;;5.05;1.37;;;;;;;13.78;69.65;100857.63;5531113;32;35374;-65
2022/06/15 02:55:06;;;;;;;2.00;1.20;;;;;;;13.81;69.03;100859.94;5531145;32;34357;-67
2022/06/15 02:58:11;;;;;;;1.70;1.20;;;;;;;13.74;69.20;100859.00;5531098;32;35227;-65
2022/06/15 03:01:15;;;;;;;4.68;1.20;;;;;;;13.60;69.75;100864.25;5531236;32;34229;-65
2022/06/15 03:04:19;;;;;;;2.33;1.52;;;;;;;13.54;70.29;100862.28;5530968;32;34416;-67
2022/06/15 03:07:23;;;;;;;1.75;1.25;;;;;;;13.47;70.74;100865.66;5531002;32;34558;-65
2022/06/15 03:10:26;;;;;;;1.65;1.25;;;;;;;13.55;70.97;100869.28;5531350;32;34797;-67
2022/06/15 03:13:31;;;;;;;3.35;1.40;;;;;;;13.66;70.56;100871.53;5530158;32;34397;-66
2022/06/15 03:16:34;;;;;;;3.67;1.60;;;;;;;13.45;71.53;100873.00;5531143;32;34626;-65
2022/06/15 03:19:37;;;;;;;2.12;1.30;;;;;;;13.38;72.13;100879.19;5530911;32;34056;-65
2022/06/15 03:22:42;;;;;;;4.65;1.40;;;;;;;13.37;72.21;100882.84;5530125;32;34016;-65
2022/06/15 03:25:59;;;;;;;3.62;1.30;;;;;;;13.37;72.55;100878.34;5531172;32;34034;-64
2022/06/15 03:29:02;;;;;;;3.33;1.30;;;;;;;13.41;72.70;100885.00;5530634;32;34612;-66
2022/06/15 03:32:05;;;;;;;2.92;1.45;;;;;;;13.51;72.48;100886.62;5530869;32;34210;-64
2022/06/15 03:35:11;;;;;;;2.80;1.40;;;;;;;13.52;72.77;100877.59;5530873;32;33995;-66
2022/06/15 03:38:15;;;;;;;1.83;1.20;;;;;;;13.58;73.78;100875.09;5530647;32;35347;-67
2022/06/15 03:41:20;;;;;;;2.72;1.35;;;;;;;13.50;73.87;100877.81;5530567;32;33951;-66
2022/06/15 03:44:23;;;;;;;2.50;1.30;;;;;;;13.55;74.45;100877.28;5530473;32;33947;-66
2022/06/15 03:47:27;;;;;;;3.50;1.42;;;;;;;13.97;73.13;100877.69;5530777;32;33977;-66
2022/06/15 03:50:32;;;;;;;4.15;1.20;;;;;;;13.94;73.28;100883.38;5529567;32;34105;-68
2022/06/15 03:53:35;;;;;;;2.30;1.50;;;;;;;13.97;74.32;100885.69;5530292;32;34417;-67
2022/06/15 03:56:40;;;;;;;3.47;1.65;;;;;;;13.92;74.50;100891.53;5530264;32;34702;-67
2022/06/15 03:59:46;;;;;;;2.20;1.50;;;;;;;13.94;75.49;100876.19;5530528;32;34063;-68
2022/06/15 04:02:52;;;;;;;4.55;1.80;;;;;;;13.84;76.80;100891.59;5530007;32;34084;-67
2022/06/15 04:05:58;;;;;;;2.25;1.52;;;;;;;13.96;76.86;100891.19;5530202;32;35217;-68
2022/06/15 04:09:01;;;;;;;4.43;1.60;;;;;;;14.04;77.20;100891.94;5530158;32;33922;-68
2022/06/15 04:12:08;;;;;;;3.87;1.80;;;;;;;14.15;76.11;100893.38;5529572;32;33949;-67
2022/06/15 04:15:12;;;;;;;3.90;1.70;;;;;;;14.24;76.47;100886.97;5530012;32;33979;-67
2022/06/15 04:18:17;;;;;;;3.95;1.60;;;;;;;14.33;76.55;100891.22;5529911;32;33905;-67
2022/06/15 04:21:20;;;;;;;4.85;1.70;;;;;;;14.45;74.82;100897.84;5529119;32;34259;-67
2022/06/15 04:24:27;;;;;;;6.10;1.67;;;;;;;14.44;75.20;100895.34;5529809;32;34327;-67
2022/06/15 04:27:32;;;;;;;5.80;1.70;;;;;;;14.65;74.33;100890.16;5529765;32;33985;-66
2022/06/15 04:30:36;;;;;;;2.70;1.50;;;;;;;14.75;73.19;100894.22;5528785;32;34176;-68
2022/06/15 04:33:39;;;;;;;3.10;1.25;;;;;;;14.82;71.66;100888.97;5529609;32;34759;-67
2022/06/15 04:36:44;;;;;;;2.40;1.23;;;;;;;14.86;72.08;100894.78;5532168;32;33952;-66
2022/06/15 04:39:49;;;;;;;4.03;1.50;;;;;;;15.00;69.73;100900.16;5532402;32;34327;-68
2022/06/15 04:42:52;;;;;;;2.60;1.23;;;;;;;14.96;70.47;100898.03;5532481;32;34024;-66
2022/06/15 04:45:55;;;;;;;5.10;1.40;;;;;;;15.00;70.13;100900.16;5532479;32;34062;-68
2022/06/15 04:49:00;;;;;;;2.22;1.30;;;;;;;15.00;70.80;100905.50;5532054;32;33949;-67
2022/06/15 04:52:06;;;;;;;4.18;1.50;;;;;;;15.12;70.48;100900.50;5532162;32;33902;-67
2022/06/15 04:55:13;;;;;;;2.58;1.45;;;;;;;15.26;68.80;100899.66;5532113;32;33829;-68
2022/06/15 04:58:16;;;;;;;3.20;1.70;;;;;;;15.30;69.57;100902.81;5531842;32;35210;-68
2022/06/15 05:01:22;;;;;;;3.25;1.60;;;;;;;15.35;68.52;100901.22;5530704;32;32456;-67
2022/06/15 05:04:25;;;;;;;6.72;1.67;;;;;;;15.53;69.66;100896.34;5531570;32;34860;-69
2022/06/15 05:07:29;;;;;;;3.37;1.48;;;;;;;15.57;68.52;100894.97;5531925;32;35108;-68
2022/06/15 05:10:32;;;;;;;3.58;1.30;;;;;;;15.71;67.34;100903.97;5532140;32;33965;-68
2022/06/15 05:13:34;;;;;;;1.77;1.20;;;;;;;15.78;65.73;100904.84;5531742;32;35178;-67
2022/06/15 05:16:38;;;;;;;2.22;1.20;;;;;;;15.99;63.77;100907.56;5531023;32;34170;-67
2022/06/15 05:19:45;;;;;;;2.35;1.40;;;;;;;15.95;64.99;100905.47;5532048;32;34319;-67
2022/06/15 05:22:53;;;;;;;6.10;1.50;;;;;;;16.14;63.90;100910.19;5531995;32;33953;-67
2022/06/15 05:26:00;;;;;;;2.83;1.30;;;;;;;16.33;62.56;100922.94;5531999;32;33914;-67
2022/06/15 05:29:03;;;;;;;5.20;1.40;;;;;;;16.37;62.82;100913.50;5531793;32;34210;-67
2022/06/15 05:32:08;;;;;;;2.22;1.30;;;;;;;16.54;62.22;100919.41;5531743;32;34610;-67
2022/06/15 05:35:12;;;;;;;3.22;1.75;;;;;;;16.68;62.46;100913.16;5531470;32;35407;-67
2022/06/15 05:38:15;;;;;;;1.58;1.20;;;;;;;16.82;63.51;100919.44;5531699;32;34121;-68
2022/06/15 05:41:18;;;;;;;1.52;1.10;;;;;;;16.93;62.71;100908.19;5530110;32;32438;-67
2022/06/15 05:44:27;;;;;;;2.65;1.27;;;;;;;17.15;61.33;100911.63;5531308;32;34601;-68
2022/06/15 05:47:31;;;;;;;3.53;1.10;;;;;;;17.23;60.18;100917.63;5530416;32;35133;-68
2022/06/15 05:50:34;;;;;;;3.25;1.40;;;;;;;17.37;60.99;100913.19;5531381;32;34005;-68
2022/06/15 05:53:37;;;;;;;4.93;1.23;;;;;;;17.36;59.31;100911.53;5531245;32;34228;-69
2022/06/15 05:56:41;;;;;;;3.47;1.30;;;;;;;17.53;59.93;100920.06;5530982;32;34696;-68
2022/06/15 05:59:44;;;;;;;3.65;1.33;;;;;;;17.77;59.30;100917.72;5531210;32;33973;-67
2022/06/15 06:02:47;;;;;;;2.28;1.10;;;;;;;17.87;58.52;100922.69;5531213;32;34172;-68
2022/06/15 06:05:50;;;;;;;4.25;1.20;;;;;;;17.95;57.93;100919.84;5531352;32;34918;-68
2022/06/15 06:08:53;;;;;;;1.85;1.30;;;;;;;17.97;56.90;100922.31;5530982;32;33957;-69
2022/06/15 06:11:55;;;;;;;3.45;1.40;;;;;;;18.04;56.64;100920.47;5531279;32;34650;-69
2022/06/15 06:14:58;;;;;;;1.62;1.00;;;;;;;18.16;56.09;100916.16;5531345;32;35287;-68
2022/06/15 06:18:02;;;;;;;3.25;1.58;;;;;;;18.32;57.41;100917.63;5531486;32;34078;-69
2022/06/15 06:21:05;;;;;;;2.55;1.23;;;;;;;18.47;55.15;100921.78;5530894;32;34384;-68
2022/06/15 06:24:08;;;;;;;3.87;1.30;;;;;;;18.56;54.63;100925.94;5531342;32;34017;-69
2022/06/15 06:27:14;;;;;;;3.83;1.48;;;;;;;18.67;54.10;100928.03;5531122;32;33891;-69
2022/06/15 06:30:16;;;;;;;3.37;1.40;;;;;;;18.71;53.53;100935.66;5517840;32;32340;-69
2022/06/15 06:33:19;;;;;;;2.15;1.40;;;;;;;18.80;52.43;100926.34;5531003;32;34474;-69
2022/06/15 06:36:32;;;;;;;3.67;1.23;;;;;;;18.95;54.46;100926.94;5530725;32;34752;-70
2022/06/15 06:39:35;;;;;;;4.82;1.20;;;;;;;19.10;52.67;100932.94;5530937;32;34575;-68
2022/06/15 06:42:38;;;;;;;2.03;1.00;;;;;;;19.29;50.27;100936.59;5531046;32;34623;-67
2022/06/15 06:45:41;;;;;;;3.03;1.23;;;;;;;19.50;49.44;100931.81;5530929;32;34562;-68
2022/06/15 06:48:46;;;;;;;3.50;1.42;;;;;;;19.59;49.52;100931.56;5530100;32;34537;-67
2022/06/15 06:51:49;;;;;;;3.28;1.30;;;;;;;19.72;51.14;100923.44;5531007;32;33974;-67
2022/06/15 06:54:54;;;;;;;3.75;1.10;;;;;;;19.87;49.81;100930.19;5530743;32;33978;-67
2022/06/15 06:57:59;;;;;;;5.30;1.20;;;;;;;20.05;49.14;100929.47;5528722;32;34693;-69
2022/06/15 07:01:02;;;;;;;2.33;1.02;;;;;;;20.25;46.68;100922.09;5530829;32;33864;-67
2022/06/15 07:04:05;;;;;;;1.92;0.95;;;;;;;20.33;46.43;100929.94;5529875;32;33915;-68
2022/06/15 07:07:08;;;;;;;4.90;1.30;;;;;;;20.63;46.20;100935.53;5530668;32;34603;-68
2022/06/15 07:10:14;;;;;;;2.70;1.30;;;;;;;20.67;46.11;100935.94;5531047;32;35373;-68
2022/06/15 07:13:17;;;;;;;2.62;1.17;;;;;;;20.80;45.40;100928.53;5530873;32;34136;-67
2022/06/15 07:16:20;;;;;;;3.97;1.12;;;;;;;21.02;45.97;100936.19;5530552;32;33985;-68
2022/06/15 07:19:24;;;;;;;4.00;1.25;;;;;;;21.28;45.93;100941.38;5530692;32;33992;-68
2022/06/15 07:22:26;;;;;;;3.70;0.95;;;;;;;21.49;45.53;100935.53;5530680;32;34774;-68
2022/06/15 07:25:33;;;;;;;10.05;1.20;;;;;;;21.80;42.57;100936.38;5529965;32;34282;-68
2022/06/15 07:28:36;;;;;;;4.37;1.27;;;;;;;22.00;42.25;100928.87;5530139;32;34641;-67
2022/06/15 07:31:42;;;;;;;5.55;1.17;;;;;;;22.30;42.18;100939.66;5530046;32;34684;-68
2022/06/15 07:34:45;;;;;;;3.67;1.30;;;;;;;22.27;43.41;100932.81;5530253;32;33919;-68
2022/06/15 07:37:49;;;;;;;5.80;1.65;;;;;;;22.78;40.91;100932.25;5530351;32;35355;-68
2022/06/15 07:41:11;;;;;;;43.30;4.90;;;;;;;23.65;38.74;100935.84;5530227;32;34336;-68
2022/06/15 07:44:16;;;;;;;5.03;2.03;;;;;;;24.33;37.22;100926.00;5529871;32;34769;-68
2022/06/15 07:50:42;;;;;;;3.40;1.00;;;;;;;24.94;36.49;100928.66;5530091;32;33920;-68
2022/06/15 07:53:45;;;;;;;3.78;1.00;;;;;;;25.66;33.63;100922.31;5529970;32;34584;-68
2022/06/15 07:56:49;;;;;;;2.85;1.62;;;;;;;26.63;33.02;100922.19;5530174;32;34696;-69
2022/06/15 07:59:53;;;;;;;2.87;0.73;;;;;;;26.88;30.94;100925.13;5530043;32;34067;-70
2022/06/15 08:02:58;;;;;;;2.60;1.10;;;;;;;27.79;30.28;100922.06;5529972;32;33880;-68
2022/06/15 08:06:00;;;;;;;2.47;0.90;;;;;;;28.36;28.73;100924.66;5529661;32;34417;-67
2022/06/15 08:09:05;;;;;;;2.78;0.90;;;;;;;28.35;28.71;100925.75;5529846;32;34272;-68
2022/06/15 08:12:16;;;;;;;3.20;1.20;;;;;;;27.96;28.83;100923.47;5531505;32;33712;-68
2022/06/15 08:15:19;;;;;;;3.47;0.95;;;;;;;27.87;29.02;100925.09;5531771;32;33499;-68
2022/06/15 08:18:27;;;;;;;5.82;1.25;;;;;;;27.44;29.54;100911.81;5531720;32;34556;-67
2022/06/15 08:21:33;;;;;;;3.35;0.90;;;;;;;27.85;29.53;100924.53;5531594;32;34630;-68
2022/06/15 08:24:38;;;;;;;2.72;1.00;;;;;;;27.56;29.35;100915.97;5530691;32;32786;-68
2022/06/15 08:27:42;;;;;;;3.08;1.02;;;;;;;28.44;28.34;100919.47;5531218;32;33884;-68
2022/06/15 08:30:45;;;;;;;1.65;0.93;;;;;;;29.11;26.11;100921.03;5531898;32;33986;-68
2022/06/15 08:33:48;;;;;;;2.33;1.10;;;;;;;28.65;27.35;100916.72;5531802;32;33908;-68
2022/06/15 08:36:55;;;;;;;1.83;0.98;;;;;;;26.84;29.55;100910.38;5531854;32;34714;-67
2022/06/15 08:39:58;;;;;;;1.40;0.90;;;;;;;28.51;28.22;100930.12;5530968;32;34083;-68
2022/06/15 08:43:39;;;;;;;3.72;1.08;;;;;;;28.58;27.12;100918.91;5531860;32;34215;-68
2022/06/15 08:47:00;;;;;;;2.40;0.80;;;;;;;28.96;26.26;100915.59;5508624;32;34461;-68
2022/06/15 08:50:12;;;;;;;2.53;0.90;;;;;;;28.35;25.43;100909.38;5532168;32;33982;-68
2022/06/15 08:53:23;;;;;;;1.45;0.82;;;;;;;29.46;24.93;100909.19;5531855;32;34148;-68
2022/06/15 08:56:34;;;;;;;1.80;0.90;;;;;;;29.62;25.17;100909.94;5531805;32;34677;-69
2022/06/15 08:59:55;;;;;;;1.80;0.75;;;;;;;29.65;25.74;100907.47;5531893;32;33912;-68
2022/06/15 09:03:55;;;;;;;3.62;1.08;;;;;;;30.23;24.50;100905.75;5530859;32;34598;-66
2022/06/15 09:07:03;;;;;;;2.03;0.75;;;;;;;30.57;23.80;100910.44;5453874;32;33911;-67
2022/06/15 09:10:18;;;;;;;1.80;0.93;;;;;;;31.37;22.69;100897.78;5453490;32;33981;-69
2022/06/15 09:13:48;;;;;;;1.67;0.70;;;;;;;31.41;22.63;100906.28;5453686;32;34361;-67
2022/06/15 09:17:19;;;;;;;2.95;1.02;;;;;;;31.16;23.01;100898.34;5453828;32;34030;-68
2022/06/15 09:20:35;;;;;;;1.50;0.90;;;;;;;31.17;22.87;100900.81;5453366;32;33789;-68
2022/06/15 09:24:00;;;;;;;1.87;1.00;;;;;;;31.71;22.19;100894.91;5441172;32;33761;-68
2022/06/15 09:27:12;;;;;;;1.77;1.00;;;;;;;31.19;22.66;100895.84;5453783;32;34289;-70
2022/06/15 09:30:27;;;;;;;2.65;0.98;;;;;;;32.06;21.49;100892.75;5453509;32;34330;-67
2022/06/15 09:33:41;;;;;;;1.73;0.82;;;;;;;33.06;20.14;100892.97;5441436;32;33989;-67
2022/06/15 09:36:49;;;;;;;9.70;1.10;;;;;;;34.51;20.01;100899.38;5460399;32;32456;-67
2022/06/15 09:39:52;;;;;;;2.90;0.80;;;;;;;33.77;19.89;100890.69;5531445;32;33919;-68
2022/06/15 09:42:57;;;;;;;1.65;0.95;;;;;;;32.63;21.03;100878.66;5531688;32;33928;-69
2022/06/15 09:46:19;;;;;;;2.62;1.00;;;;;;;29.90;24.05;100889.31;5532348;32;34144;-68
2022/06/15 09:49:41;;;;;;;3.90;1.10;;;;;;;30.29;23.12;100878.34;5530929;32;34050;-68
2022/06/15 09:52:57;;;;;;;2.33;0.88;;;;;;;31.33;23.35;100883.03;5531372;32;35255;-67
2022/06/15 09:56:06;;;;;;;2.30;0.85;;;;;;;32.52;21.23;100879.94;5530152;32;34275;-69
2022/06/15 09:59:20;;;;;;;1.40;0.85;;;;;;;31.60;21.72;100878.91;5531222;32;34030;-67
2022/06/15 10:02:32;;;;;;;1.75;0.90;;;;;;;31.28;21.42;100876.81;5531977;32;33960;-69
2022/06/15 10:05:39;;;;;;;3.37;0.85;;;;;;;31.64;21.19;100872.53;5531581;32;33999;-68
2022/06/15 10:08:43;;;;;;;1.42;0.70;;;;;;;33.84;19.52;100872.59;5531456;32;34080;-68
2022/06/15 10:11:51;;;;;;;1.45;0.70;;;;;;;34.72;18.36;100876.50;5530561;32;33944;-68
2022/06/15 10:15:03;;;;;;;;;;;;;;;32.24;20.96;100867.25;5531866;32;33984;-70
2022/06/15 10:18:46;;;;;;;2.08;0.90;;;;;;;30.86;22.33;100866.59;5530969;32;34395;-68
2022/06/15 10:21:56;;;;;;;1.45;0.85;;;;;;;33.25;20.09;100868.13;5530775;32;34181;-69
2022/06/15 10:25:03;;;;;;;2.95;0.88;;;;;;;32.02;22.16;100853.28;5531347;32;34017;-67
2022/06/15 10:28:20;;;;;;;3.03;0.73;;;;;;;34.99;19.89;100850.69;5526731;32;146206;-69
2022/06/15 10:31:33;;;;;;;6.60;0.90;;;;;;;34.21;18.97;100843.13;5531037;32;34011;-68
2022/06/15 10:34:56;;;;;;;3.83;0.80;;;;;;;36.58;17.10;100844.25;5530933;32;34013;-68
2022/06/15 10:38:03;;;;;;;1.35;0.70;;;;;;;34.12;18.09;100842.22;5531007;32;34652;-69
2022/06/15 10:44:31;;;;;;;2.50;0.80;;;;;;;33.28;18.44;100840.00;5531571;32;34540;-69
2022/06/15 10:47:49;;;;;;;1.50;0.80;;;;;;;36.54;16.56;100832.22;5530922;32;34626;-69
2022/06/15 10:51:09;;;;;;;1.50;0.70;;;;;;;38.07;15.07;100833.56;5531041;32;34881;-68
2022/06/15 10:54:20;;;;;;;4.72;0.80;;;;;;;37.50;15.62;100827.03;5530891;32;35178;-70
2022/06/15 11:04:22;;;;;;;2.17;0.73;;;;;;;32.72;20.35;100810.91;5530285;32;33837;-68
2022/06/15 11:07:30;;;;;;;2.05;0.70;;;;;;;33.31;18.42;100814.62;5530864;32;33928;-67
2022/06/15 11:10:44;;;;;;;1.98;0.62;;;;;;;35.67;17.23;100813.34;5530997;32;33945;-68
2022/06/15 11:13:56;;;;;;;7.57;0.90;;;;;;;38.35;14.72;100816.31;5530201;32;34018;-69
2022/06/15 11:21:09;;;;;;;1.58;0.80;;;;;;;35.89;16.37;100809.59;5530612;32;34037;-69
2022/06/15 11:24:39;;;;;;;4.95;1.40;;;;;;;36.10;16.55;100805.00;5530658;32;34132;-68
2022/06/15 11:27:54;;;;;;;5.07;3.00;;;;;;;38.30;15.19;100803.47;5525712;32;34635;-69
2022/06/15 11:31:01;;;;;;;1.02;0.70;;;;;;;37.09;15.61;100794.56;5530844;32;35358;-68
2022/06/15 11:34:20;;;;;;;2.90;0.60;;;;;;;38.24;14.92;100796.56;5530514;32;34022;-70
2022/06/15 11:37:29;;;;;;;0.98;0.70;;;;;;;37.93;15.23;100790.66;5529421;32;34132;-68
2022/06/15 11:41:02;;;;;;;2.15;0.88;;;;;;;39.23;15.27;100787.94;5529458;32;34175;-69
2022/06/15 11:44:16;;;;;;;1.48;1.00;;;;;;;38.85;15.14;100782.75;5529670;32;34249;-68
2022/06/15 11:47:41;;;;;;;2.53;1.17;;;;;;;39.60;14.69;100772.81;5530348;32;34436;-68
2022/06/15 11:51:16;;;;;;;1.70;0.70;;;;;;;40.26;13.77;100789.75;5530517;32;34119;-69
2022/06/15 11:54:28;;;;;;;2.10;0.77;;;;;;;41.70;13.24;100778.81;5529553;32;32621;-68
2022/06/15 11:58:20;;;;;;;2.20;0.80;;;;;;;42.67;12.54;100774.59;5528937;32;32986;-67
2022/06/15 12:01:31;;;;;;;1.48;0.70;;;;;;;40.97;13.12;100774.81;5517874;32;34342;-68
2022/06/15 12:04:57;;;;;;;2.05;0.90;;;;;;;43.11;11.32;100770.13;5529547;32;33959;-67
2022/06/15 12:08:10;;;;;;;2.53;0.93;;;;;;;41.80;12.69;100762.28;5530332;32;34079;-69
2022/06/15 12:15:23;;;;;;;2.62;1.20;;;;;;;40.74;13.28;100757.19;5509754;32;34113;-69
2022/06/15 12:18:48;;;;;;;2.00;0.90;;;;;;;39.53;14.01;100748.41;5529712;32;33970;-69
2022/06/15 12:22:03;;;;;;;2.22;0.90;;;;;;;35.50;17.45;100742.37;5528750;32;32757;-67
2022/06/15 12:25:28;;;;;;;1.73;1.05;;;;;;;35.59;17.92;100740.41;5516399;32;32322;-66
2022/06/15 12:29:02;;;;;;;2.97;1.42;;;;;;;37.98;16.89;100746.13;5529693;32;33874;-68
2022/06/15 12:35:44;;;;;;;3.37;0.95;;;;;;;36.79;16.45;100746.75;5529455;32;34118;-69
2022/06/15 12:39:10;;;;;;;2.08;0.93;;;;;;;35.50;17.24;100734.09;5529464;32;33992;-69
2022/06/15 12:42:17;;;;;;;2.03;0.93;;;;;;;37.26;16.18;100737.19;5529308;32;34157;-68
2022/06/15 12:45:37;;;;;;;2.17;0.80;;;;;;;39.61;15.26;100732.75;5529419;32;34648;-72
2022/06/15 12:49:07;;;;;;;1.45;0.80;;;;;;;40.41;14.36;100726.97;5529019;32;34422;-68
2022/06/15 12:52:24;;;;;;;2.35;1.10;;;;;;;40.01;13.74;100724.34;5529708;32;34061;-68
2022/06/15 12:55:50;;;;;;;1.52;1.10;;;;;;;40.04;13.44;100723.62;5530265;32;34811;-67
2022/06/15 12:59:27;;;;;;;4.15;1.30;;;;;;;35.20;16.98;100721.25;5532122;32;34575;-68
2022/06/15 13:03:09;;;;;;;2.33;0.90;;;;;;;36.78;17.06;100717.50;5531927;32;33918;-67
2022/06/15 13:06:33;;;;;;;1.98;1.00;;;;;;;39.31;14.95;100723.16;5530797;32;33260;-68
2022/06/15 13:09:36;;;;;;;2.03;0.90;;;;;;;39.79;14.14;100717.44;5531911;32;34606;-67
2022/06/15 13:12:51;;;;;;;3.30;0.90;;;;;;;39.18;14.39;100707.69;5531735;32;33905;-67
2022/06/15 13:16:02;;;;;;;1.73;0.77;;;;;;;39.70;13.77;100710.41;5530738;32;32371;-67
2022/06/15 13:19:09;;;;;;;1.23;0.80;;;;;;;36.88;15.79;100715.16;5531589;32;33940;-68
2022/06/15 13:22:12;;;;;;;2.50;0.90;;;;;;;36.49;16.56;100715.50;5531506;32;33998;-68
2022/06/15 13:25:21;;;;;;;2.37;0.85;;;;;;;38.10;14.88;100710.19;5531678;32;35246;-69
2022/06/15 13:29:00;;;;;;;1.90;0.90;;;;;;;35.34;18.36;100702.63;5531757;32;34440;-67
2022/06/15 13:32:06;;;;;;;1.73;0.75;;;;;;;39.30;15.43;100708.47;5531718;32;34054;-68
2022/06/15 13:35:25;;;;;;;3.53;1.10;;;;;;;40.96;13.58;100705.63;5531500;32;34646;-68
2022/06/15 13:38:35;;;;;;;1.70;0.70;;;;;;;42.52;13.22;100716.97;5531476;32;34139;-68
2022/06/15 13:41:38;;;;;;;1.65;0.50;;;;;;;39.25;14.34;100708.72;5531253;32;33949;-67
2022/06/15 13:44:49;;;;;;;6.32;0.80;;;;;;;41.22;13.45;100716.94;5530166;32;34044;-67
2022/06/15 13:48:00;;;;;;;1.33;0.90;;;;;;;41.36;13.07;100708.88;5531456;32;33894;-67
2022/06/15 13:51:41;;;;;;;1.37;0.90;;;;;;;43.91;11.03;100712.03;5531565;32;33963;-68
2022/06/15 13:55:02;;;;;;;6.20;0.60;;;;;;;43.94;11.28;100702.88;5531246;32;34881;-68
2022/06/15 13:58:26;;;;;;;3.58;0.90;;;;;;;40.96;12.71;100697.28;5531497;32;33964;-70
2022/06/15 14:01:50;;;;;;;3.50;0.70;;;;;;;41.79;12.90;100693.78;5531164;32;33880;-67
2022/06/15 14:05:34;;;;;;;1.40;0.90;;;;;;;42.85;11.93;100692.78;5531186;32;35254;-67
2022/06/15 14:08:49;;;;;;;4.15;0.70;;;;;;;38.35;14.56;100680.50;5530360;32;34006;-67
2022/06/15 14:12:07;;;;;;;2.97;0.80;;;;;;;39.23;15.46;100668.56;5530439;32;34193;-67
2022/06/15 14:15:29;;;;;;;1.83;0.80;;;;;;;41.42;13.45;100673.97;5530106;32;33934;-68
2022/06/15 14:18:55;;;;;;;3.35;0.90;;;;;;;41.40;12.43;100672.72;5530842;32;35317;-68
2022/06/15 14:22:09;;;;;;;1.85;0.88;;;;;;;42.47;12.02;100681.84;5530755;32;34508;-68
2022/06/15 14:25:19;;;;;;;1.25;0.60;;;;;;;41.02;11.97;100673.53;5530288;32;34652;-67
2022/06/15 14:28:26;;;;;;;1.42;0.50;;;;;;;38.18;13.98;100674.03;5517524;32;34680;-68
2022/06/15 14:31:33;;;;;;;2.00;0.32;;;;;;;36.02;15.45;100670.53;5529634;32;34187;-69
2022/06/15 14:34:37;;;;;;;6.72;0.70;;;;;;;35.89;15.11;100666.00;5530688;32;33973;-68
2022/06/15 14:37:56;;;;;;;1.83;0.60;;;;;;;39.19;13.21;100665.72;5530634;32;35274;-67
2022/06/15 14:41:15;;;;;;;1.52;0.52;;;;;;;40.49;12.27;100666.75;5529728;32;34414;-66
2022/06/15 14:44:23;;;;;;;0.45;0.40;;;;;;;41.91;11.46;100667.78;5529620;32;35346;-67
2022/06/15 14:47:33;;;;;;;1.83;0.43;;;;;;;42.65;10.19;100665.38;5528987;32;34083;-67
2022/06/15 14:50:38;;;;;;;1.02;0.40;;;;;;;42.30;11.16;100666.44;5530107;32;34361;-68
2022/06/15 14:53:52;;;;;;;6.93;0.70;;;;;;;42.07;11.56;100649.72;5529511;32;35265;-68
2022/06/15 14:56:57;;;;;;;1.17;0.50;;;;;;;41.67;11.51;100649.41;5530494;32;34592;-69
2022/06/15 15:00:16;;;;;;;2.40;0.60;;;;;;;39.34;12.59;100650.28;5529237;32;33729;-69
2022/06/15 15:03:28;;;;;;;1.40;0.60;;;;;;;36.99;14.84;100638.09;5529881;32;34151;-66
2022/06/15 15:06:32;;;;;;;1.27;0.50;;;;;;;39.67;13.53;100645.25;5529808;32;34405;-67
2022/06/15 15:09:43;;;;;;;2.78;0.65;;;;;;;39.29;13.49;100639.41;5529647;32;33861;-67
2022/06/15 15:12:46;;;;;;;1.65;0.30;;;;;;;40.02;13.20;100637.03;5530137;32;33951;-68